Terminal Aerodrome Forecast
Issued by NWS Charleston, WV

Current Version | Previous Version | Text Only | Print | Product List | Glossary Off
Versions: 1 2 3 4 5 6 7 8 9 10 11 12 13 14 15 16 17 18 19 20 21 22 23 24 25 26 27 28 29

000
FTUS41 KRLX 251122
TAFHTS
TAF
KHTS 251122Z 2512/2612 20004KT P6SM SCT150
     FM251800 23005KT P6SM SCT045 BKN150
     FM252300 27004KT P6SM VCTS BKN045CB
     FM260900 VRB03KT 5SM SHRA BR BKN020=

USA.gov is the U.S. government's official web portal to all federal, state and local government web resources and services.